sensor_id;sensor_type;location;lat;lon;timestamp;pressure;altitude;pressure_sealevel;temperature;humidity
54920;BME280;63804;53.120;8.764;2024-01-15T00:02:20;99688.78;;;3.21;78.45
54920;BME280;63804;53.120;8.764;2024-01-15T00:04:50;99694.44;;;3.28;78.48
54920;BME280;63804;53.120;8.764;2024-01-15T00:07:21;99694.47;;;3.42;77.46
54920;BME280;63804;53.120;8.764;2024-01-15T00:09:51;99685.69;;;3.29;78.05
54920;BME280;63804;53.120;8.764;2024-01-15T00:12:21;99679.03;;;3.23;77.91
54920;BME280;63804;53.120;8.764;2024-01-15T00:14:52;99687.47;;;3.28;78.21
54920;BME280;63804;53.120;8.764;2024-01-15T00:17:23;99671.38;;;3.34;78.02
54920;BME280;63804;53.120;8.764;2024-01-15T00:19:53;99674.47;;;3.55;77.43
54920;BME280;63804;53.120;8.764;2024-01-15T00:22:25;99677.06;;;3.55;77.23
54920;BME280;63804;53.120;8.764;2024-01-15T00:24:56;99671.44;;;3.61;76.94
54920;BME280;63804;53.120;8.764;2024-01-15T00:27:28;99669.97;;;3.57;77.19
54920;BME280;63804;53.120;8.764;2024-01-15T00:29:58;99676.50;;;3.50;77.60
54920;BME280;63804;53.120;8.764;2024-01-15T00:32:35;99673.59;;;3.55;77.29
54920;BME280;63804;53.120;8.764;2024-01-15T00:35:06;99663.72;;;3.46;77.46
54920;BME280;63804;53.120;8.764;2024-01-15T00:37:38;99664.84;;;3.41;77.80
54920;BME280;63804;53.120;8.764;2024-01-15T00:40:09;99669.06;;;3.44;77.69
54920;BME280;63804;53.120;8.764;2024-01-15T00:42:40;99678.75;;;3.42;77.85
54920;BME280;63804;53.120;8.764;2024-01-15T00:45:10;99661.56;;;3.52;77.35
54920;BME280;63804;53.120;8.764;2024-01-15T00:47:41;99666.59;;;3.55;77.35
54920;BME280;63804;53.120;8.764;2024-01-15T00:50:11;99658.09;;;3.52;77.04
54920;BME280;63804;53.120;8.764;2024-01-15T00:52:41;99661.91;;;3.60;77.16
54920;BME280;63804;53.120;8.764;2024-01-15T00:55:12;99636.88;;;3.42;77.24
54920;BME280;63804;53.120;8.764;2024-01-15T00:57:41;99654.84;;;3.48;77.31
54920;BME280;63804;53.120;8.764;2024-01-15T01:00:12;99646.41;;;3.57;77.50
54920;BME280;63804;53.120;8.764;2024-01-15T01:02:42;99647.81;;;3.49;78.01
54920;BME280;63804;53.120;8.764;2024-01-15T01:05:13;99648.13;;;3.44;78.32
54920;BME280;63804;53.120;8.764;2024-01-15T01:07:42;99638.19;;;3.35;78.44
54920;BME280;63804;53.120;8.764;2024-01-15T01:10:12;99642.03;;;3.44;78.54
54920;BME280;63804;53.120;8.764;2024-01-15T01:12:42;99621.28;;;3.40;78.45
54920;BME280;63804;53.120;8.764;2024-01-15T01:15:12;99625.88;;;3.51;78.29
54920;BME280;63804;53.120;8.764;2024-01-15T01:17:42;99643.97;;;3.54;77.96
54920;BME280;63804;53.120;8.764;2024-01-15T01:20:13;99611.47;;;3.44;78.28
54920;BME280;63804;53.120;8.764;2024-01-15T01:22:48;99621.53;;;3.50;78.42
54920;BME280;63804;53.120;8.764;2024-01-15T01:25:18;99627.44;;;3.54;78.75
54920;BME280;63804;53.120;8.764;2024-01-15T01:27:49;99629.31;;;3.52;79.35
54920;BME280;63804;53.120;8.764;2024-01-15T01:30:20;99631.75;;;3.40;79.67
54920;BME280;63804;53.120;8.764;2024-01-15T01:32:51;99605.50;;;3.28;80.27
54920;BME280;63804;53.120;8.764;2024-01-15T01:35:22;99631.59;;;3.29;80.68
54920;BME280;63804;53.120;8.764;2024-01-15T01:37:52;99617.97;;;3.10;82.26
54920;BME280;63804;53.120;8.764;2024-01-15T01:40:22;99617.78;;;3.13;82.42
54920;BME280;63804;53.120;8.764;2024-01-15T01:42:53;99621.97;;;3.15;82.12
54920;BME280;63804;53.120;8.764;2024-01-15T01:45:24;99626.00;;;3.21;81.65
54920;BME280;63804;53.120;8.764;2024-01-15T01:47:54;99616.53;;;3.18;82.05
54920;BME280;63804;53.120;8.764;2024-01-15T01:50:25;99615.97;;;3.28;81.45
54920;BME280;63804;53.120;8.764;2024-01-15T01:52:55;99615.88;;;3.29;81.46
54920;BME280;63804;53.120;8.764;2024-01-15T01:55:27;99621.41;;;3.25;81.67
54920;BME280;63804;53.120;8.764;2024-01-15T01:58:00;99618.13;;;3.07;82.03
54920;BME280;63804;53.120;8.764;2024-01-15T02:00:34;99609.56;;;2.90;83.23
54920;BME280;63804;53.120;8.764;2024-01-15T02:03:05;99611.50;;;3.01;82.78
54920;BME280;63804;53.120;8.764;2024-01-15T02:05:37;99617.78;;;3.13;82.60
54920;BME280;63804;53.120;8.764;2024-01-15T02:08:12;99615.22;;;3.26;82.25
54920;BME280;63804;53.120;8.764;2024-01-15T02:10:43;99600.91;;;3.31;81.76
54920;BME280;63804;53.120;8.764;2024-01-15T02:13:13;99599.13;;;3.32;81.53
54920;BME280;63804;53.120;8.764;2024-01-15T02:15:44;99598.06;;;3.22;82.03
54920;BME280;63804;53.120;8.764;2024-01-15T02:18:15;99610.38;;;3.34;81.83
54920;BME280;63804;53.120;8.764;2024-01-15T02:20:46;99602.50;;;3.34;81.32
54920;BME280;63804;53.120;8.764;2024-01-15T02:23:16;99605.59;;;3.40;81.66
54920;BME280;63804;53.120;8.764;2024-01-15T02:25:47;99603.47;;;3.33;81.74
54920;BME280;63804;53.120;8.764;2024-01-15T02:28:17;99592.16;;;3.32;81.74
54920;BME280;63804;53.120;8.764;2024-01-15T02:30:48;99602.78;;;3.44;81.35
54920;BME280;63804;53.120;8.764;2024-01-15T02:33:19;99586.69;;;3.50;81.21
54920;BME280;63804;53.120;8.764;2024-01-15T02:35:49;99578.00;;;3.49;80.97
54920;BME280;63804;53.120;8.764;2024-01-15T02:38:20;99589.94;;;3.53;81.06
54920;BME280;63804;53.120;8.764;2024-01-15T02:40:50;99597.31;;;3.61;80.97
54920;BME280;63804;53.120;8.764;2024-01-15T02:43:21;99576.22;;;3.50;81.10
54920;BME280;63804;53.120;8.764;2024-01-15T02:45:52;99577.69;;;3.54;81.51
54920;BME280;63804;53.120;8.764;2024-01-15T02:48:22;99603.03;;;3.53;81.48
54920;BME280;63804;53.120;8.764;2024-01-15T02:50:53;99589.75;;;3.56;81.32
54920;BME280;63804;53.120;8.764;2024-01-15T02:53:23;99589.41;;;3.48;81.42
54920;BME280;63804;53.120;8.764;2024-01-15T02:55:54;99592.88;;;3.34;81.62
54920;BME280;63804;53.120;8.764;2024-01-15T02:58:24;99598.13;;;3.34;81.97
54920;BME280;63804;53.120;8.764;2024-01-15T03:00:54;99614.09;;;3.30;81.81
54920;BME280;63804;53.120;8.764;2024-01-15T03:03:25;99599.53;;;3.26;81.98
54920;BME280;63804;53.120;8.764;2024-01-15T03:05:55;99601.03;;;3.15;82.40
54920;BME280;63804;53.120;8.764;2024-01-15T03:08:26;99591.63;;;3.13;82.49
54920;BME280;63804;53.120;8.764;2024-01-15T03:10:56;99581.53;;;3.07;82.35
54920;BME280;63804;53.120;8.764;2024-01-15T03:13:26;99596.84;;;3.13;82.19
54920;BME280;63804;53.120;8.764;2024-01-15T03:15:56;99600.84;;;3.18;82.04
54920;BME280;63804;53.120;8.764;2024-01-15T03:18:28;99595.44;;;3.22;81.85
54920;BME280;63804;53.120;8.764;2024-01-15T03:20:58;99592.16;;;3.18;82.06
54920;BME280;63804;53.120;8.764;2024-01-15T03:23:34;99597.66;;;3.28;81.84
54920;BME280;63804;53.120;8.764;2024-01-15T03:26:05;99593.94;;;3.17;81.79
54920;BME280;63804;53.120;8.764;2024-01-15T03:28:36;99581.59;;;3.20;81.49
54920;BME280;63804;53.120;8.764;2024-01-15T03:31:07;99587.94;;;3.30;81.45
54920;BME280;63804;53.120;8.764;2024-01-15T03:33:38;99587.31;;;3.12;81.41
54920;BME280;63804;53.120;8.764;2024-01-15T03:36:09;99572.00;;;3.06;81.92
54920;BME280;63804;53.120;8.764;2024-01-15T03:38:41;99581.25;;;3.11;82.01
54920;BME280;63804;53.120;8.764;2024-01-15T03:41:12;99583.78;;;3.13;81.84
54920;BME280;63804;53.120;8.764;2024-01-15T03:43:40;99594.38;;;3.24;81.61
54920;BME280;63804;53.120;8.764;2024-01-15T03:46:09;99596.38;;;3.21;81.74
54920;BME280;63804;53.120;8.764;2024-01-15T03:48:38;99587.94;;;3.30;81.14
54920;BME280;63804;53.120;8.764;2024-01-15T03:51:07;99586.53;;;3.38;80.91
54920;BME280;63804;53.120;8.764;2024-01-15T03:53:38;99599.78;;;3.35;80.79
54920;BME280;63804;53.120;8.764;2024-01-15T03:56:08;99602.69;;;3.31;81.12
54920;BME280;63804;53.120;8.764;2024-01-15T03:58:38;99595.44;;;3.36;81.14
54920;BME280;63804;53.120;8.764;2024-01-15T04:01:11;99607.84;;;3.32;81.28
54920;BME280;63804;53.120;8.764;2024-01-15T04:03:42;99600.38;;;3.26;81.48
54920;BME280;63804;53.120;8.764;2024-01-15T04:06:12;99602.81;;;3.29;81.95
54920;BME280;63804;53.120;8.764;2024-01-15T04:08:43;99600.72;;;3.49;81.43
54920;BME280;63804;53.120;8.764;2024-01-15T04:11:13;99603.88;;;3.39;80.83
54920;BME280;63804;53.120;8.764;2024-01-15T04:13:44;99616.41;;;3.49;81.14
54920;BME280;63804;53.120;8.764;2024-01-15T04:16:14;99624.91;;;3.52;80.56
54920;BME280;63804;53.120;8.764;2024-01-15T04:18:44;99632.66;;;3.54;80.56
54920;BME280;63804;53.120;8.764;2024-01-15T04:21:17;99604.47;;;3.45;81.34
54920;BME280;63804;53.120;8.764;2024-01-15T04:23:47;99601.00;;;3.44;81.60
54920;BME280;63804;53.120;8.764;2024-01-15T04:26:17;99608.75;;;3.46;81.67
54920;BME280;63804;53.120;8.764;2024-01-15T04:28:48;99609.03;;;3.41;81.42
54920;BME280;63804;53.120;8.764;2024-01-15T04:31:25;99609.59;;;3.46;81.03
54920;BME280;63804;53.120;8.764;2024-01-15T04:33:58;99615.09;;;3.56;80.37
54920;BME280;63804;53.120;8.764;2024-01-15T04:36:31;99606.31;;;3.42;80.50
54920;BME280;63804;53.120;8.764;2024-01-15T04:39:02;99611.44;;;3.58;80.00
54920;BME280;63804;53.120;8.764;2024-01-15T04:41:35;99607.06;;;3.59;79.96
54920;BME280;63804;53.120;8.764;2024-01-15T04:44:05;99602.94;;;3.55;80.14
54920;BME280;63804;53.120;8.764;2024-01-15T04:46:36;99613.84;;;3.61;80.21
54920;BME280;63804;53.120;8.764;2024-01-15T04:49:07;99616.97;;;3.54;80.56
54920;BME280;63804;53.120;8.764;2024-01-15T04:51:37;99603.22;;;3.50;80.65
54920;BME280;63804;53.120;8.764;2024-01-15T04:54:07;99611.53;;;3.57;80.60
54920;BME280;63804;53.120;8.764;2024-01-15T04:56:38;99600.53;;;3.52;81.06
54920;BME280;63804;53.120;8.764;2024-01-15T04:59:08;99598.00;;;3.50;80.87
54920;BME280;63804;53.120;8.764;2024-01-15T05:01:38;99594.53;;;3.50;80.95
54920;BME280;63804;53.120;8.764;2024-01-15T05:04:08;99594.47;;;3.37;81.07
54920;BME280;63804;53.120;8.764;2024-01-15T05:06:38;99592.81;;;3.36;81.06
54920;BME280;63804;53.120;8.764;2024-01-15T05:09:08;99596.09;;;3.25;81.59
54920;BME280;63804;53.120;8.764;2024-01-15T05:11:39;99587.94;;;3.30;81.02
54920;BME280;63804;53.120;8.764;2024-01-15T05:14:09;99588.88;;;3.29;81.42
54920;BME280;63804;53.120;8.764;2024-01-15T05:16:46;99594.38;;;3.24;81.08
54920;BME280;63804;53.120;8.764;2024-01-15T05:19:16;99603.28;;;3.22;81.46
54920;BME280;63804;53.120;8.764;2024-01-15T05:21:47;99598.78;;;3.24;81.88
54920;BME280;63804;53.120;8.764;2024-01-15T05:24:17;99604.59;;;3.29;81.55
54920;BME280;63804;53.120;8.764;2024-01-15T05:26:48;99598.59;;;3.41;81.32
54920;BME280;63804;53.120;8.764;2024-01-15T05:29:18;99597.81;;;3.39;81.45
54920;BME280;63804;53.120;8.764;2024-01-15T05:31:48;99597.56;;;3.44;81.17
54920;BME280;63804;53.120;8.764;2024-01-15T05:34:19;99598.94;;;3.49;81.28
54920;BME280;63804;53.120;8.764;2024-01-15T05:36:49;99594.06;;;3.43;81.30
54920;BME280;63804;53.120;8.764;2024-01-15T05:39:19;99586.34;;;3.41;80.89
54920;BME280;63804;53.120;8.764;2024-01-15T05:41:52;99596.34;;;3.35;81.38
54920;BME280;63804;53.120;8.764;2024-01-15T05:44:23;99600.06;;;3.45;81.12
54920;BME280;63804;53.120;8.764;2024-01-15T05:46:53;99599.59;;;3.53;80.73
54920;BME280;63804;53.120;8.764;2024-01-15T05:49:23;99612.47;;;3.56;80.78
54920;BME280;63804;53.120;8.764;2024-01-15T05:51:54;99615.81;;;3.58;80.44
54920;BME280;63804;53.120;8.764;2024-01-15T05:54:24;99604.44;;;3.59;80.37
54920;BME280;63804;53.120;8.764;2024-01-15T05:56:54;99598.44;;;3.57;80.03
54920;BME280;63804;53.120;8.764;2024-01-15T05:59:25;99595.28;;;3.52;80.21
54920;BME280;63804;53.120;8.764;2024-01-15T06:01:56;99612.03;;;3.49;80.43
54920;BME280;63804;53.120;8.764;2024-01-15T06:04:26;99604.94;;;3.51;80.35
54920;BME280;63804;53.120;8.764;2024-01-15T06:06:56;99607.44;;;3.53;80.01
54920;BME280;63804;53.120;8.764;2024-01-15T06:09:28;99609.22;;;3.52;79.94
54920;BME280;63804;53.120;8.764;2024-01-15T06:11:59;99597.63;;;3.42;80.80
54920;BME280;63804;53.120;8.764;2024-01-15T06:14:32;99598.41;;;3.44;80.60
54920;BME280;63804;53.120;8.764;2024-01-15T06:17:02;99599.13;;;3.46;80.67
54920;BME280;63804;53.120;8.764;2024-01-15T06:19:36;99596.03;;;3.39;80.70
54920;BME280;63804;53.120;8.764;2024-01-15T06:22:06;99592.03;;;3.48;80.89
54920;BME280;63804;53.120;8.764;2024-01-15T06:24:38;99590.13;;;3.50;80.54
54920;BME280;63804;53.120;8.764;2024-01-15T06:27:08;99588.13;;;3.41;80.70
54920;BME280;63804;53.120;8.764;2024-01-15T06:29:45;99591.91;;;3.50;81.06
54920;BME280;63804;53.120;8.764;2024-01-15T06:32:19;99583.72;;;3.41;81.15
54920;BME280;63804;53.120;8.764;2024-01-15T06:34:50;99586.78;;;3.48;81.24
54920;BME280;63804;53.120;8.764;2024-01-15T06:37:20;99595.97;;;3.41;81.16
54920;BME280;63804;53.120;8.764;2024-01-15T06:39:50;99593.53;;;3.38;81.25
54920;BME280;63804;53.120;8.764;2024-01-15T06:42:21;99611.66;;;3.41;81.48
54920;BME280;63804;53.120;8.764;2024-01-15T06:44:52;99605.00;;;3.50;81.13
54920;BME280;63804;53.120;8.764;2024-01-15T06:47:23;99612.69;;;3.38;81.74
54920;BME280;63804;53.120;8.764;2024-01-15T06:49:53;99608.41;;;3.37;81.50
54920;BME280;63804;53.120;8.764;2024-01-15T06:52:24;99619.16;;;3.33;81.61
54920;BME280;63804;53.120;8.764;2024-01-15T06:54:54;99617.00;;;3.25;81.74
54920;BME280;63804;53.120;8.764;2024-01-15T06:57:25;99626.47;;;3.13;82.05
54920;BME280;63804;53.120;8.764;2024-01-15T06:59:55;99626.25;;;3.16;82.26
54920;BME280;63804;53.120;8.764;2024-01-15T07:02:25;99627.91;;;3.32;81.93
54920;BME280;63804;53.120;8.764;2024-01-15T07:04:57;99632.31;;;3.31;82.03
54920;BME280;63804;53.120;8.764;2024-01-15T07:07:27;99618.41;;;3.31;81.98
54920;BME280;63804;53.120;8.764;2024-01-15T07:10:00;99618.59;;;3.28;81.98
54920;BME280;63804;53.120;8.764;2024-01-15T07:12:34;99632.53;;;3.14;82.69
54920;BME280;63804;53.120;8.764;2024-01-15T07:15:05;99648.75;;;3.05;83.09
54920;BME280;63804;53.120;8.764;2024-01-15T07:17:40;99621.88;;;2.88;82.81
54920;BME280;63804;53.120;8.764;2024-01-15T07:20:11;99640.81;;;2.92;83.50
54920;BME280;63804;53.120;8.764;2024-01-15T07:22:41;99627.28;;;3.00;83.19
54920;BME280;63804;53.120;8.764;2024-01-15T07:25:11;99639.72;;;2.96;83.28
54920;BME280;63804;53.120;8.764;2024-01-15T07:27:41;99651.84;;;2.97;83.21
54920;BME280;63804;53.120;8.764;2024-01-15T07:30:14;99643.53;;;2.90;83.26
54920;BME280;63804;53.120;8.764;2024-01-15T07:32:44;99641.09;;;2.87;83.26
54920;BME280;63804;53.120;8.764;2024-01-15T07:35:14;99620.94;;;2.75;83.80
54920;BME280;63804;53.120;8.764;2024-01-15T07:37:45;99642.97;;;2.85;83.49
54920;BME280;63804;53.120;8.764;2024-01-15T07:40:16;99636.59;;;2.89;83.67
54920;BME280;63804;53.120;8.764;2024-01-15T07:42:44;99642.44;;;2.95;83.31
54920;BME280;63804;53.120;8.764;2024-01-15T07:45:14;99647.44;;;2.98;83.20
54920;BME280;63804;53.120;8.764;2024-01-15T07:47:44;99654.56;;;3.10;82.83
54920;BME280;63804;53.120;8.764;2024-01-15T07:50:14;99656.53;;;3.06;82.77
54920;BME280;63804;53.120;8.764;2024-01-15T07:52:43;99651.66;;;3.14;82.99
54920;BME280;63804;53.120;8.764;2024-01-15T07:55:14;99659.41;;;3.16;82.53
54920;BME280;63804;53.120;8.764;2024-01-15T07:57:43;99671.84;;;3.12;82.53
54920;BME280;63804;53.120;8.764;2024-01-15T08:00:22;99678.00;;;3.11;82.90
54920;BME280;63804;53.120;8.764;2024-01-15T08:02:52;99671.84;;;3.12;82.44
54920;BME280;63804;53.120;8.764;2024-01-15T08:05:23;99663.63;;;3.18;82.92
54920;BME280;63804;53.120;8.764;2024-01-15T08:07:53;99667.56;;;3.26;82.19
54920;BME280;63804;53.120;8.764;2024-01-15T08:10:29;99664.28;;;3.36;81.87
54920;BME280;63804;53.120;8.764;2024-01-15T08:13:00;99660.25;;;3.31;81.65
54920;BME280;63804;53.120;8.764;2024-01-15T08:15:35;99651.84;;;3.40;81.58
54920;BME280;63804;53.120;8.764;2024-01-15T08:18:06;99648.78;;;3.33;81.18
54920;BME280;63804;53.120;8.764;2024-01-15T08:20:37;99650.56;;;3.33;80.90
54920;BME280;63804;53.120;8.764;2024-01-15T08:23:07;99652.66;;;3.55;79.95
54920;BME280;63804;53.120;8.764;2024-01-15T08:25:37;99645.09;;;3.50;80.29
54920;BME280;63804;53.120;8.764;2024-01-15T08:28:08;99660.91;;;3.49;80.17
54920;BME280;63804;53.120;8.764;2024-01-15T08:30:38;99637.66;;;3.44;79.86
54920;BME280;63804;53.120;8.764;2024-01-15T08:33:09;99652.78;;;3.39;80.27
54920;BME280;63804;53.120;8.764;2024-01-15T08:35:50;99651.47;;;3.32;80.31
54920;BME280;63804;53.120;8.764;2024-01-15T08:38:20;99650.63;;;3.46;80.03
54920;BME280;63804;53.120;8.764;2024-01-15T08:40:50;99666.50;;;3.42;79.73
54920;BME280;63804;53.120;8.764;2024-01-15T08:43:23;99667.56;;;3.40;79.86
54920;BME280;63804;53.120;8.764;2024-01-15T08:45:53;99674.34;;;3.42;79.83
54920;BME280;63804;53.120;8.764;2024-01-15T08:48:24;99677.38;;;3.36;80.10
54920;BME280;63804;53.120;8.764;2024-01-15T08:50:57;99689.50;;;3.37;79.48
54920;BME280;63804;53.120;8.764;2024-01-15T08:53:28;99676.16;;;3.13;80.43
54920;BME280;63804;53.120;8.764;2024-01-15T08:55:59;99671.31;;;3.36;79.88
54920;BME280;63804;53.120;8.764;2024-01-15T08:58:34;99673.44;;;3.29;79.73
54920;BME280;63804;53.120;8.764;2024-01-15T09:01:04;99674.28;;;3.44;79.75
54920;BME280;63804;53.120;8.764;2024-01-15T09:03:36;99665.66;;;3.42;79.76
54920;BME280;63804;53.120;8.764;2024-01-15T09:06:07;99660.06;;;3.48;79.58
54920;BME280;63804;53.120;8.764;2024-01-15T09:08:38;99661.94;;;3.46;79.20
54920;BME280;63804;53.120;8.764;2024-01-15T09:11:09;99675.94;;;3.45;79.23
54920;BME280;63804;53.120;8.764;2024-01-15T09:13:41;99668.19;;;3.58;79.22
54920;BME280;63804;53.120;8.764;2024-01-15T09:16:11;99665.38;;;3.61;78.96
54920;BME280;63804;53.120;8.764;2024-01-15T09:18:42;99662.66;;;3.62;78.54
54920;BME280;63804;53.120;8.764;2024-01-15T09:21:12;99666.56;;;3.70;78.39
54920;BME280;63804;53.120;8.764;2024-01-15T09:23:43;99674.91;;;3.62;78.61
54920;BME280;63804;53.120;8.764;2024-01-15T09:26:13;99685.47;;;3.60;78.90
54920;BME280;63804;53.120;8.764;2024-01-15T09:28:44;99689.59;;;3.64;78.72
54920;BME280;63804;53.120;8.764;2024-01-15T09:31:14;99692.56;;;3.58;79.09
54920;BME280;63804;53.120;8.764;2024-01-15T09:33:45;99691.19;;;3.38;79.83
54920;BME280;63804;53.120;8.764;2024-01-15T09:36:15;99694.19;;;3.18;80.93
54920;BME280;63804;53.120;8.764;2024-01-15T09:38:46;99688.66;;;3.08;81.44
54920;BME280;63804;53.120;8.764;2024-01-15T09:41:17;99690.81;;;3.16;82.05
54920;BME280;63804;53.120;8.764;2024-01-15T09:43:48;99674.75;;;3.22;81.49
54920;BME280;63804;53.120;8.764;2024-01-15T09:46:18;99678.03;;;3.26;81.71
54920;BME280;63804;53.120;8.764;2024-01-15T09:48:49;99677.53;;;3.19;82.15
54920;BME280;63804;53.120;8.764;2024-01-15T09:51:20;99677.38;;;3.36;81.76
54920;BME280;63804;53.120;8.764;2024-01-15T09:53:50;99680.59;;;3.54;80.92
54920;BME280;63804;53.120;8.764;2024-01-15T09:56:22;99689.50;;;3.52;80.90
54920;BME280;63804;53.120;8.764;2024-01-15T09:58:53;99687.47;;;3.28;81.38
54920;BME280;63804;53.120;8.764;2024-01-15T10:01:24;99689.97;;;3.30;81.25
54920;BME280;63804;53.120;8.764;2024-01-15T10:03:55;99688.28;;;3.43;81.22
54920;BME280;63804;53.120;8.764;2024-01-15T10:06:27;99690.25;;;3.39;80.87
54920;BME280;63804;53.120;8.764;2024-01-15T10:09:02;99686.44;;;3.45;80.53
54920;BME280;63804;53.120;8.764;2024-01-15T10:11:36;99690.25;;;3.54;80.23
54920;BME280;63804;53.120;8.764;2024-01-15T10:14:08;99684.34;;;3.50;79.93
54920;BME280;63804;53.120;8.764;2024-01-15T10:16:42;99678.16;;;3.65;79.32
54920;BME280;63804;53.120;8.764;2024-01-15T10:19:13;99683.22;;;3.69;79.62
54920;BME280;63804;53.120;8.764;2024-01-15T10:21:43;99668.63;;;3.64;79.21
54920;BME280;63804;53.120;8.764;2024-01-15T10:24:14;99678.09;;;3.67;79.39
54920;BME280;63804;53.120;8.764;2024-01-15T10:26:44;99679.28;;;3.76;79.45
54920;BME280;63804;53.120;8.764;2024-01-15T10:29:15;99671.44;;;3.76;79.59
54920;BME280;63804;53.120;8.764;2024-01-15T10:31:46;99666.72;;;3.81;78.88
54920;BME280;63804;53.120;8.764;2024-01-15T10:34:19;99679.34;;;3.88;79.07
54920;BME280;63804;53.120;8.764;2024-01-15T10:36:50;99663.44;;;3.91;78.72
54920;BME280;63804;53.120;8.764;2024-01-15T10:39:25;99663.56;;;3.76;79.43
54920;BME280;63804;53.120;8.764;2024-01-15T10:41:56;99672.63;;;3.84;79.35
54920;BME280;63804;53.120;8.764;2024-01-15T10:44:27;99678.03;;;3.81;79.34
54920;BME280;63804;53.120;8.764;2024-01-15T10:46:58;99677.59;;;3.75;79.33
54920;BME280;63804;53.120;8.764;2024-01-15T10:49:35;99680.13;;;3.76;79.53
54920;BME280;63804;53.120;8.764;2024-01-15T10:52:06;99691.25;;;3.80;79.67
54920;BME280;63804;53.120;8.764;2024-01-15T10:54:37;99674.69;;;3.79;79.62
54920;BME280;63804;53.120;8.764;2024-01-15T10:57:08;99680.41;;;3.72;80.20
54920;BME280;63804;53.120;8.764;2024-01-15T10:59:39;99690.59;;;3.62;80.43
54920;BME280;63804;53.120;8.764;2024-01-15T11:02:09;99680.34;;;3.59;80.38
54920;BME280;63804;53.120;8.764;2024-01-15T11:04:40;99685.47;;;3.60;80.34
54920;BME280;63804;53.120;8.764;2024-01-15T11:07:13;99670.97;;;3.69;80.26
54920;BME280;63804;53.120;8.764;2024-01-15T11:09:45;99677.25;;;3.52;80.51
54920;BME280;63804;53.120;8.764;2024-01-15T11:12:17;99665.38;;;3.61;80.78
54920;BME280;63804;53.120;8.764;2024-01-15T11:14:50;99669.41;;;3.66;80.11
54920;BME280;63804;53.120;8.764;2024-01-15T11:17:20;99673.66;;;3.82;80.12
54920;BME280;63804;53.120;8.764;2024-01-15T11:19:51;99661.13;;;3.87;78.79
54920;BME280;63804;53.120;8.764;2024-01-15T11:25:15;99665.69;;;3.83;79.46
54920;BME280;63804;53.120;8.764;2024-01-15T11:27:49;99663.09;;;3.83;79.16
54920;BME280;63804;53.120;8.764;2024-01-15T11:30:25;99665.75;;;3.96;79.24
54920;BME280;63804;53.120;8.764;2024-01-15T11:32:56;99670.81;;;3.99;78.72
54920;BME280;63804;53.120;8.764;2024-01-15T11:35:49;99668.81;;;4.03;78.36
54920;BME280;63804;53.120;8.764;2024-01-15T11:38:27;99669.50;;;3.92;78.53
54920;BME280;63804;53.120;8.764;2024-01-15T11:41:01;99672.69;;;3.97;78.47
54920;BME280;63804;53.120;8.764;2024-01-15T11:43:43;99673.19;;;4.17;77.86
54920;BME280;63804;53.120;8.764;2024-01-15T11:46:16;99667.81;;;4.05;77.59
54920;BME280;63804;53.120;8.764;2024-01-15T11:48:53;99672.69;;;4.24;77.21
54920;BME280;63804;53.120;8.764;2024-01-15T11:51:34;99681.13;;;4.15;77.45
54920;BME280;63804;53.120;8.764;2024-01-15T11:54:06;99684.88;;;4.11;77.60
54920;BME280;63804;53.120;8.764;2024-01-15T11:56:39;99674.03;;;4.17;77.42
54920;BME280;63804;53.120;8.764;2024-01-15T11:59:10;99672.22;;;4.05;77.87
54920;BME280;63804;53.120;8.764;2024-01-15T12:01:40;99673.84;;;3.93;77.92
54920;BME280;63804;53.120;8.764;2024-01-15T12:04:11;99666.66;;;3.82;78.48
54920;BME280;63804;53.120;8.764;2024-01-15T12:06:47;99681.69;;;3.93;77.95
54920;BME280;63804;53.120;8.764;2024-01-15T12:09:19;99670.13;;;4.10;77.45
54920;BME280;63804;53.120;8.764;2024-01-15T12:11:54;99676.34;;;4.22;76.78
54920;BME280;63804;53.120;8.764;2024-01-15T12:14:32;99684.00;;;4.25;76.51
54920;BME280;63804;53.120;8.764;2024-01-15T12:17:05;99678.44;;;4.17;76.88
54920;BME280;63804;53.120;8.764;2024-01-15T12:19:37;99672.47;;;4.27;76.80
54920;BME280;63804;53.120;8.764;2024-01-15T12:22:07;99674.59;;;4.35;76.60
54920;BME280;63804;53.120;8.764;2024-01-15T12:24:37;99667.78;;;4.32;77.01
54920;BME280;63804;53.120;8.764;2024-01-15T12:27:08;99668.25;;;4.52;76.33
54920;BME280;63804;53.120;8.764;2024-01-15T12:29:38;99679.19;;;4.58;76.13
54920;BME280;63804;53.120;8.764;2024-01-15T12:32:09;99684.81;;;4.52;75.93
54920;BME280;63804;53.120;8.764;2024-01-15T12:34:39;99680.41;;;4.53;76.11
54920;BME280;63804;53.120;8.764;2024-01-15T12:37:09;99683.81;;;4.28;76.80
54920;BME280;63804;53.120;8.764;2024-01-15T12:39:44;99687.97;;;4.18;77.70
54920;BME280;63804;53.120;8.764;2024-01-15T12:42:14;99684.72;;;4.00;77.92
54920;BME280;63804;53.120;8.764;2024-01-15T12:44:47;99687.00;;;3.91;78.48
54920;BME280;63804;53.120;8.764;2024-01-15T12:47:17;99692.28;;;4.04;78.36
54920;BME280;63804;53.120;8.764;2024-01-15T12:49:54;99692.28;;;4.04;78.59
54920;BME280;63804;53.120;8.764;2024-01-15T12:52:40;99691.91;;;4.10;78.79
54920;BME280;63804;53.120;8.764;2024-01-15T12:55:13;99684.19;;;3.95;78.91
54920;BME280;63804;53.120;8.764;2024-01-15T12:57:45;99694.69;;;3.80;79.75
54920;BME280;63804;53.120;8.764;2024-01-15T13:00:15;99695.34;;;3.70;80.17
54920;BME280;63804;53.120;8.764;2024-01-15T13:02:44;99678.94;;;3.67;79.86
54920;BME280;63804;53.120;8.764;2024-01-15T13:05:16;99686.72;;;3.96;79.61
54920;BME280;63804;53.120;8.764;2024-01-15T13:07:48;99687.19;;;3.88;79.49
54920;BME280;63804;53.120;8.764;2024-01-15T13:10:18;99685.69;;;3.99;79.72
54920;BME280;63804;53.120;8.764;2024-01-15T13:12:49;99692.66;;;3.85;79.85
54920;BME280;63804;53.120;8.764;2024-01-15T13:15:21;99693.16;;;3.63;80.68
54920;BME280;63804;53.120;8.764;2024-01-15T13:17:52;99692.97;;;3.52;81.25
54920;BME280;63804;53.120;8.764;2024-01-15T13:20:21;99698.75;;;3.43;81.53
54920;BME280;63804;53.120;8.764;2024-01-15T13:22:52;99694.09;;;3.34;81.48
54920;BME280;63804;53.120;8.764;2024-01-15T13:25:22;99698.78;;;3.29;81.62
54920;BME280;63804;53.120;8.764;2024-01-15T13:27:52;99698.19;;;3.24;81.76
54920;BME280;63804;53.120;8.764;2024-01-15T13:30:23;99694.44;;;3.28;81.49
54920;BME280;63804;53.120;8.764;2024-01-15T13:32:54;99698.66;;;3.30;81.52
54920;BME280;63804;53.120;8.764;2024-01-15T13:35:26;99688.84;;;3.34;81.37